Time;durP1;ratioP1;P1;durP2;ratioP2;P2;SDS_P1;SDS_P2;PMS_P1;PMS_P2;Temp;Humidity;BMP_temperature;BMP_pressure;BME280_temperature;BME280_humidity;BME280_pressure;Samples;Min_cycle;Max_cycle;Signal;HPM_P1;HPM_P2
2023/03/22 00:01:29;;;;;;;8.98;3.70;;;11.20;93.20;;;;;;5073615;28;20029;-71
2023/03/22 00:03:55;;;;;;;8.13;3.90;;;11.20;93.30;;;;;;5073531;28;20016;-72
2023/03/22 00:06:22;;;;;;;8.15;4.28;;;11.20;93.30;;;;;;5074451;28;20501;-72
2023/03/22 00:08:50;;;;;;;7.18;4.43;;;11.10;93.50;;;;;;5074421;28;20040;-72
2023/03/22 00:11:16;;;;;;;8.88;4.32;;;11.10;94.00;;;;;;5073344;28;20096;-72
2023/03/22 00:13:42;;;;;;;10.35;4.70;;;11.10;93.90;;;;;;5073322;28;20029;-71
2023/03/22 00:16:09;;;;;;;8.43;4.60;;;11.10;93.90;;;;;;5074268;28;20059;-72
2023/03/22 00:18:35;;;;;;;7.78;4.50;;;11.10;93.60;;;;;;5074157;28;20393;-72
2023/03/22 00:21:01;;;;;;;9.32;4.75;;;11.00;93.90;;;;;;5056521;28;20084;-71
2023/03/22 00:23:27;;;;;;;10.80;4.68;;;11.00;94.00;;;;;;5074105;28;20021;-72
2023/03/22 00:25:54;;;;;;;10.55;5.20;;;11.00;93.90;;;;;;5073087;28;20024;-71
2023/03/22 00:28:19;;;;;;;9.45;4.38;;;11.00;93.90;;;;;;5073997;28;20055;-72
2023/03/22 00:30:54;;;;;;;9.07;4.43;;;11.00;93.90;;;;;;5073894;28;20064;-72
2023/03/22 00:33:19;;;;;;;7.63;4.40;;;11.00;93.90;;;;;;5073955;28;20071;-71
2023/03/22 00:35:54;;;;;;;7.15;3.95;;;11.00;93.90;;;;;;5073896;28;20029;-72
2023/03/22 00:38:20;;;;;;;8.43;4.20;;;10.90;93.90;;;;;;5073757;28;20028;-71
2023/03/22 00:40:46;;;;;;;9.05;4.40;;;10.90;93.90;;;;;;5073796;28;20048;-71
2023/03/22 00:43:12;;;;;;;11.07;4.55;;;10.90;93.80;;;;;;5073743;28;20029;-71
2023/03/22 00:45:39;;;;;;;7.40;3.88;;;10.80;93.80;;;;;;5073718;28;20045;-72
2023/03/22 00:48:10;;;;;;;9.20;4.20;;;10.90;93.80;;;;;;5073687;28;20085;-72
2023/03/22 00:50:37;;;;;;;7.57;4.10;;;10.80;93.90;;;;;;5073841;28;20052;-71
2023/03/22 00:53:03;;;;;;;8.68;4.05;;;10.80;93.90;;;;;;5072645;28;20036;-71
2023/03/22 00:55:30;;;;;;;8.82;3.90;;;10.80;93.80;;;;;;5073548;28;20036;-71
2023/03/22 00:57:55;;;;;;;7.63;3.88;;;10.80;93.80;;;;;;5073478;28;20033;-72
2023/03/22 01:00:21;;;;;;;7.78;3.97;;;10.80;93.70;;;;;;5073442;28;20029;-72
2023/03/22 01:02:47;;;;;;;10.40;4.00;;;10.80;93.70;;;;;;5073432;28;20025;-71
2023/03/22 01:05:16;;;;;;;7.95;3.83;;;10.70;93.80;;;;;;5072897;28;20036;-71
2023/03/22 01:07:43;;;;;;;8.52;3.75;;;10.70;93.90;;;;;;5056300;28;20025;-71
2023/03/22 01:10:10;;;;;;;10.02;3.60;;;10.70;94.00;;;;;;5073342;28;20047;-71
2023/03/22 01:12:36;;;;;;;11.82;4.68;;;10.70;93.90;;;;;;5072277;28;20044;-71
2023/03/22 01:15:02;;;;;;;9.00;4.32;;;10.70;93.90;;;;;;5073272;28;20037;-71
2023/03/22 01:17:28;;;;;;;8.82;4.00;;;10.70;94.10;;;;;;5073013;28;20080;-72
2023/03/22 01:19:54;;;;;;;7.40;3.70;;;10.70;94.10;;;;;;5073301;28;20045;-71
2023/03/22 01:22:19;;;;;;;8.50;3.85;;;10.70;94.10;;;;;;5072314;28;20040;-71
2023/03/22 01:24:45;;;;;;;7.13;3.88;;;10.70;94.10;;;;;;5073260;28;20036;-72
2023/03/22 01:27:10;;;;;;;8.52;3.50;;;10.70;94.20;;;;;;5073051;28;20087;-71
2023/03/22 01:29:36;;;;;;;7.47;4.63;;;10.70;94.20;;;;;;5071974;28;20064;-71
2023/03/22 01:32:03;;;;;;;8.00;4.30;;;10.70;94.30;;;;;;5072145;28;20025;-71
2023/03/22 01:34:29;;;;;;;8.35;3.90;;;10.60;94.40;;;;;;5073037;28;20044;-71
2023/03/22 01:36:55;;;;;;;9.05;4.10;;;10.70;95.00;;;;;;5072006;28;20029;-71
2023/03/22 01:39:21;;;;;;;9.50;4.07;;;10.70;94.50;;;;;;5072133;28;20021;-71
2023/03/22 01:41:46;;;;;;;9.90;5.15;;;10.70;94.60;;;;;;5073003;28;20040;-71
2023/03/22 01:44:14;;;;;;;12.18;4.30;;;10.70;94.70;;;;;;5072944;28;20022;-71
2023/03/22 01:46:41;;;;;;;10.45;4.68;;;10.70;94.80;;;;;;5072987;28;20021;-71
2023/03/22 01:49:13;;;;;;;15.18;5.75;;;10.70;95.00;;;;;;5072929;28;20109;-72
2023/03/22 01:51:39;;;;;;;10.20;5.72;;;10.70;95.30;;;;;;5072989;28;20017;-72
2023/03/22 01:54:09;;;;;;;13.20;6.53;;;10.80;95.60;;;;;;5072924;28;20022;-72
2023/03/22 01:56:38;;;;;;;11.10;5.65;;;10.70;95.90;;;;;;5072953;28;20045;-71
2023/03/22 01:59:04;;;;;;;12.02;5.50;;;10.80;96.40;;;;;;5072858;28;20025;-70
2023/03/22 02:01:31;;;;;;;14.00;6.80;;;10.80;96.60;;;;;;5072817;28;20056;-71
2023/03/22 02:04:19;;;;;;;11.98;6.57;;;10.90;96.60;;;;;;5072799;28;20045;-71
2023/03/22 02:06:46;;;;;;;11.25;6.47;;;10.90;96.70;;;;;;5072904;28;20032;-72
2023/03/22 02:09:16;;;;;;;14.75;7.28;;;11.00;96.60;;;;;;5072721;28;20024;-71
2023/03/22 02:11:53;;;;;;;14.65;6.63;;;11.00;96.60;;;;;;5072909;28;20036;-71
2023/03/22 02:14:25;;;;;;;12.52;6.95;;;11.00;96.80;;;;;;5072711;28;20013;-72
2023/03/22 02:17:00;;;;;;;12.32;7.05;;;11.10;96.70;;;;;;5074837;28;20017;-71
2023/03/22 02:19:41;;;;;;;15.23;7.35;;;11.10;97.00;;;;;;5075473;28;20032;-72
2023/03/22 02:22:41;;;;;;;14.32;6.63;;;11.10;97.10;;;;;;5076477;28;20077;-72
2023/03/22 02:25:28;;;;;;;11.20;6.43;;;11.10;97.20;;;;;;5075615;28;20036;-72
2023/03/22 02:28:22;;;;;;;13.32;7.15;;;11.10;97.30;;;;;;5076425;28;20084;-71
2023/03/22 02:31:01;;;;;;;12.88;5.75;;;11.10;97.30;;;;;;5072103;28;20072;-71
2023/03/22 02:33:51;;;;;;;12.00;6.18;;;11.10;97.40;;;;;;5076312;28;20017;-71
2023/03/22 02:36:42;;;;;;;9.73;4.55;;;11.10;97.50;;;;;;5076251;28;20028;-70
2023/03/22 02:39:27;;;;;;;10.15;5.55;;;11.10;97.50;;;;;;5076311;28;20112;-72
2023/03/22 02:42:32;;;;;;;8.80;5.22;;;11.10;97.50;;;;;;5076060;28;20032;-72
2023/03/22 02:45:15;;;;;;;10.75;5.47;;;11.00;97.70;;;;;;5075296;28;20037;-71
2023/03/22 02:47:53;;;;;;;11.00;5.72;;;11.00;97.70;;;;;;5075993;28;20053;-71
2023/03/22 02:50:29;;;;;;;11.23;5.45;;;11.00;97.70;;;;;;5075930;28;20025;-71
2023/03/22 02:53:33;;;;;;;10.57;5.75;;;11.00;97.70;;;;;;5075890;28;20028;-71
2023/03/22 02:56:11;;;;;;;13.18;5.90;;;11.00;97.70;;;;;;5031578;28;20477;-70
2023/03/22 02:58:45;;;;;;;10.60;5.07;;;11.00;97.70;;;;;;5074780;28;20039;-71
2023/03/22 03:01:22;;;;;;;13.63;5.50;;;11.00;97.70;;;;;;5075883;28;20025;-71
2023/03/22 03:03:50;;;;;;;11.20;4.22;;;11.00;97.60;;;;;;5075717;28;20063;-71
2023/03/22 03:06:19;;;;;;;9.48;5.32;;;11.00;97.60;;;;;;5075664;28;20025;-71
2023/03/22 03:08:49;;;;;;;10.43;5.35;;;11.10;97.50;;;;;;5075553;28;20021;-71
2023/03/22 03:11:15;;;;;;;12.23;5.22;;;11.10;97.40;;;;;;5075604;28;20025;-71
2023/03/22 03:13:41;;;;;;;13.02;5.05;;;11.10;97.50;;;;;;5074440;28;20025;-71
2023/03/22 03:16:16;;;;;;;10.13;4.85;;;11.00;97.50;;;;;;5075415;28;20029;-71
2023/03/22 03:18:47;;;;;;;9.05;5.18;;;11.10;97.40;;;;;;5074339;28;20021;-71
2023/03/22 03:21:34;;;;;;;8.15;4.75;;;11.10;97.30;;;;;;5075529;28;20437;-71
2023/03/22 03:24:03;;;;;;;9.75;3.75;;;11.10;97.40;;;;;;5075376;28;20493;-71
2023/03/22 03:26:52;;;;;;;8.77;4.40;;;11.00;97.40;;;;;;5074723;28;20029;-71
2023/03/22 03:29:39;;;;;;;9.80;4.38;;;11.10;97.40;;;;;;5075105;28;20078;-71
2023/03/22 03:32:20;;;;;;;5.55;3.80;;;11.00;97.40;;;;;;5075185;28;20032;-71
2023/03/22 03:35:05;;;;;;;7.38;3.42;;;11.00;97.30;;;;;;5075151;28;20021;-71
2023/03/22 03:37:36;;;;;;;7.75;4.22;;;11.00;97.30;;;;;;5075127;28;20084;-71
2023/03/22 03:40:33;;;;;;;6.80;3.70;;;11.00;97.30;;;;;;5075035;28;20017;-71
2023/03/22 03:43:02;;;;;;;10.27;4.32;;;11.00;97.20;;;;;;5058949;28;20041;-71
2023/03/22 03:45:29;;;;;;;10.07;3.80;;;11.00;97.20;;;;;;5074925;28;20052;-71
2023/03/22 03:47:59;;;;;;;10.35;3.75;;;11.00;97.20;;;;;;5074867;28;20051;-71
2023/03/22 03:50:26;;;;;;;10.77;4.22;;;11.00;97.10;;;;;;5074873;28;20028;-71
2023/03/22 03:52:53;;;;;;;6.57;3.42;;;11.10;97.10;;;;;;5074729;28;20508;-71
2023/03/22 03:55:20;;;;;;;7.78;4.00;;;11.00;97.00;;;;;;5074728;28;20032;-71
2023/03/22 03:57:46;;;;;;;7.00;3.88;;;11.00;97.00;;;;;;5074497;28;20089;-72
2023/03/22 04:00:15;;;;;;;6.47;3.90;;;11.00;97.00;;;;;;5074592;28;20032;-71
2023/03/22 04:02:42;;;;;;;10.30;3.47;;;11.00;97.00;;;;;;5057246;28;20052;-71
2023/03/22 04:05:09;;;;;;;4.95;2.88;;;11.00;96.90;;;;;;5073501;28;20044;-70
2023/03/22 04:07:36;;;;;;;5.93;3.30;;;11.00;96.80;;;;;;5074483;28;20056;-70
2023/03/22 04:10:02;;;;;;;6.10;3.38;;;11.00;96.70;;;;;;5074387;28;20033;-71
2023/03/22 04:12:28;;;;;;;5.35;3.00;;;11.00;96.70;;;;;;5074359;28;20028;-71
2023/03/22 04:14:54;;;;;;;6.32;3.15;;;11.00;96.70;;;;;;5073354;28;20037;-71
2023/03/22 04:17:21;;;;;;;7.97;3.33;;;11.00;96.60;;;;;;5074173;28;20025;-71
2023/03/22 04:19:47;;;;;;;7.32;2.95;;;11.00;96.60;;;;;;5073182;28;20025;-71
2023/03/22 04:22:13;;;;;;;6.25;3.42;;;11.00;96.50;;;;;;5074164;28;20040;-71
2023/03/22 04:24:40;;;;;;;6.00;3.35;;;11.00;96.50;;;;;;5074095;28;20081;-71
2023/03/22 04:27:07;;;;;;;5.63;2.78;;;10.90;96.50;;;;;;5074023;28;20048;-71
2023/03/22 04:29:35;;;;;;;6.25;3.05;;;10.90;96.50;;;;;;5073822;28;20049;-71
2023/03/22 04:32:03;;;;;;;6.88;2.83;;;10.90;96.50;;;;;;5072947;28;20054;-71
2023/03/22 04:34:30;;;;;;;5.28;2.72;;;10.80;96.50;;;;;;5073857;28;20108;-71
2023/03/22 04:36:56;;;;;;;6.70;3.00;;;10.80;96.50;;;;;;5072935;28;20060;-70
2023/03/22 04:39:21;;;;;;;6.53;3.20;;;10.80;96.60;;;;;;5073095;28;20029;-71
2023/03/22 04:41:47;;;;;;;6.65;3.08;;;10.80;96.60;;;;;;5072944;28;20029;-71
2023/03/22 04:44:13;;;;;;;8.35;3.38;;;10.80;96.60;;;;;;5073744;28;20051;-71
2023/03/22 04:46:38;;;;;;;8.35;3.15;;;10.80;96.60;;;;;;5072714;28;20029;-71
2023/03/22 04:49:05;;;;;;;12.25;3.00;;;10.80;96.60;;;;;;5073678;28;20044;-70
2023/03/22 04:51:31;;;;;;;4.07;2.50;;;10.80;96.60;;;;;;5073609;28;20033;-71
2023/03/22 04:53:57;;;;;;;9.02;3.08;;;10.80;96.90;;;;;;5073715;28;20032;-71
2023/03/22 04:56:23;;;;;;;8.10;3.65;;;10.80;96.50;;;;;;5073568;28;20052;-71
2023/03/22 04:58:48;;;;;;;7.28;2.50;;;10.80;96.40;;;;;;5073480;28;20036;-71
2023/03/22 05:01:16;;;;;;;5.78;2.65;;;10.80;96.40;;;;;;5072565;28;20104;-71
2023/03/22 05:03:44;;;;;;;6.05;2.65;;;10.80;96.40;;;;;;5073438;28;20089;-71
2023/03/22 05:06:10;;;;;;;6.25;2.60;;;10.70;96.40;;;;;;5072478;28;20067;-71
2023/03/22 05:08:36;;;;;;;4.88;2.40;;;10.70;96.50;;;;;;5073370;28;20029;-71
2023/03/22 05:11:11;;;;;;;6.80;2.83;;;10.70;96.40;;;;;;5073342;28;20048;-71
2023/03/22 05:13:37;;;;;;;4.70;2.67;;;10.70;96.80;;;;;;5073530;28;20060;-71
2023/03/22 05:16:04;;;;;;;7.18;2.75;;;10.70;96.50;;;;;;5072360;28;20029;-71
2023/03/22 05:18:31;;;;;;;4.97;2.47;;;10.70;96.50;;;;;;5072311;28;20025;-71
2023/03/22 05:20:58;;;;;;;6.53;2.80;;;10.70;96.50;;;;;;5073263;28;20021;-70
2023/03/22 05:23:24;;;;;;;4.18;2.10;;;10.70;96.50;;;;;;5073215;28;20048;-71
2023/03/22 05:25:52;;;;;;;5.45;2.25;;;10.70;96.50;;;;;;5072160;28;20067;-71
2023/03/22 05:28:20;;;;;;;5.05;2.40;;;10.70;96.60;;;;;;5073241;28;20421;-71
2023/03/22 05:30:46;;;;;;;5.38;2.17;;;10.70;96.90;;;;;;5073033;28;20056;-71
2023/03/22 05:33:13;;;;;;;5.25;2.50;;;10.70;96.50;;;;;;5073194;28;20040;-70
2023/03/22 05:35:40;;;;;;;5.80;2.13;;;10.70;96.40;;;;;;5073060;28;20025;-71
2023/03/22 05:38:06;;;;;;;8.23;2.45;;;10.70;96.30;;;;;;5072081;28;20055;-71
2023/03/22 05:40:32;;;;;;;3.92;2.08;;;10.70;96.30;;;;;;5072002;28;20028;-70
2023/03/22 05:42:58;;;;;;;3.55;2.10;;;10.70;96.20;;;;;;5072019;28;20017;-71
2023/03/22 05:45:24;;;;;;;3.95;2.20;;;10.70;96.10;;;;;;5072980;28;20033;-71
2023/03/22 05:47:50;;;;;;;7.00;2.13;;;10.70;96.00;;;;;;5071970;28;20025;-71
2023/03/22 05:50:19;;;;;;;3.90;2.05;;;10.70;95.90;;;;;;5074242;28;20021;-72
2023/03/22 05:52:45;;;;;;;4.35;1.83;;;10.70;95.90;;;;;;5076944;28;20089;-71
2023/03/22 05:55:12;;;;;;;5.50;1.70;;;10.70;95.80;;;;;;5076063;28;20033;-71
2023/03/22 05:57:39;;;;;;;3.13;2.00;;;10.70;95.70;;;;;;5076875;28;20075;-71
2023/03/22 06:00:12;;;;;;;5.07;2.15;;;10.70;95.70;;;;;;5076912;28;20021;-71
2023/03/22 06:02:39;;;;;;;4.93;1.98;;;10.70;95.80;;;;;;5076901;28;20029;-70
2023/03/22 06:05:06;;;;;;;7.70;1.55;;;10.70;95.70;;;;;;5076772;28;20032;-71
2023/03/22 06:07:31;;;;;;;5.25;1.83;;;10.70;95.60;;;;;;5076730;28;20040;-70
2023/03/22 06:09:57;;;;;;;6.93;1.92;;;10.70;95.60;;;;;;5075830;28;20089;-71
2023/03/22 06:12:24;;;;;;;4.95;1.70;;;10.70;95.40;;;;;;5076656;28;20060;-71
2023/03/22 06:14:51;;;;;;;6.88;1.90;;;10.80;95.40;;;;;;5075787;28;20218;-71
2023/03/22 06:17:17;;;;;;;5.85;2.10;;;10.70;95.40;;;;;;5076484;28;20033;-71
2023/03/22 06:19:43;;;;;;;4.47;2.00;;;10.80;95.50;;;;;;5075567;28;20036;-71
2023/03/22 06:22:08;;;;;;;5.82;2.10;;;10.80;95.50;;;;;;5076510;28;20017;-71
2023/03/22 06:24:34;;;;;;;2.75;1.77;;;10.70;95.60;;;;;;5075532;28;20029;-71
2023/03/22 06:27:00;;;;;;;4.55;1.45;;;10.70;95.70;;;;;;5076341;28;20044;-70
2023/03/22 06:29:26;;;;;;;6.15;1.95;;;10.80;95.60;;;;;;5075251;28;20124;-71
2023/03/22 06:31:51;;;;;;;3.70;1.80;;;10.80;95.50;;;;;;5075217;28;20097;-71
2023/03/22 06:34:17;;;;;;;4.15;1.98;;;10.80;95.60;;;;;;5076255;28;20080;-71
2023/03/22 06:36:42;;;;;;;4.78;1.90;;;10.80;95.60;;;;;;5075247;28;20033;-70
2023/03/22 06:39:08;;;;;;;6.88;2.05;;;10.80;95.60;;;;;;5075194;28;20025;-71
2023/03/22 06:41:34;;;;;;;2.65;1.38;;;10.80;95.70;;;;;;5075064;28;20048;-71
2023/03/22 06:44:00;;;;;;;5.03;1.45;;;10.80;95.60;;;;;;5075178;28;20033;-71
2023/03/22 06:46:26;;;;;;;8.27;2.13;;;10.90;95.60;;;;;;5074980;28;20470;-71
2023/03/22 06:48:51;;;;;;;5.90;2.00;;;10.80;95.50;;;;;;5074987;28;20033;-71
2023/03/22 06:51:17;;;;;;;5.68;2.15;;;10.90;95.50;;;;;;5075867;28;20085;-72
2023/03/22 06:53:44;;;;;;;4.55;2.22;;;10.90;95.80;;;;;;5058220;28;20029;-71
2023/03/22 06:56:09;;;;;;;6.03;2.30;;;11.00;95.60;;;;;;5075854;28;20028;-71
2023/03/22 06:58:35;;;;;;;5.15;2.28;;;10.90;95.60;;;;;;5075674;28;20021;-71
2023/03/22 07:01:02;;;;;;;3.25;1.80;;;11.00;95.60;;;;;;5075437;28;20043;-71
2023/03/22 07:03:27;;;;;;;7.00;1.92;;;11.00;95.70;;;;;;5075243;28;20025;-71
2023/03/22 07:06:03;;;;;;;6.82;1.75;;;11.00;95.60;;;;;;5074617;28;20079;-71
2023/03/22 07:08:29;;;;;;;3.60;1.77;;;11.00;95.40;;;;;;5075603;28;20028;-71
2023/03/22 07:10:55;;;;;;;4.78;2.42;;;11.00;95.80;;;;;;5075567;28;20021;-70
2023/03/22 07:13:21;;;;;;;10.82;2.33;;;11.10;96.00;;;;;;5074523;28;20044;-71
2023/03/22 07:15:46;;;;;;;4.40;2.30;;;11.10;95.50;;;;;;5075427;28;20089;-71
2023/03/22 07:18:12;;;;;;;7.25;2.65;;;11.20;95.90;;;;;;5074394;28;20037;-71
2023/03/22 07:20:40;;;;;;;7.32;2.42;;;11.20;96.00;;;;;;5075330;28;20029;-71
2023/03/22 07:23:06;;;;;;;6.13;2.05;;;11.20;95.20;;;;;;5074426;28;20021;-71
2023/03/22 07:25:32;;;;;;;5.70;1.88;;;11.30;95.40;;;;;;5075296;28;20043;-72
2023/03/22 07:27:59;;;;;;;6.60;2.63;;;11.30;95.20;;;;;;5074227;28;20033;-71
2023/03/22 07:30:25;;;;;;;4.40;2.28;;;11.40;95.30;;;;;;5073926;28;20053;-71
2023/03/22 07:32:50;;;;;;;6.90;2.28;;;11.40;95.50;;;;;;5075134;28;20090;-72
2023/03/22 07:35:17;;;;;;;5.07;2.40;;;11.40;95.00;;;;;;5075232;28;20041;-71
2023/03/22 07:37:43;;;;;;;7.95;2.85;;;11.40;94.70;;;;;;5073985;28;20035;-71
2023/03/22 07:40:11;;;;;;;7.53;2.72;;;11.40;94.10;;;;;;5075037;28;20021;-71
2023/03/22 07:42:36;;;;;;;7.57;2.53;;;11.40;94.60;;;;;;5074925;28;20036;-71
2023/03/22 07:45:03;;;;;;;7.93;2.78;;;11.40;94.50;;;;;;5073957;28;20029;-72
2023/03/22 07:47:29;;;;;;;9.43;2.95;;;11.40;94.60;;;;;;5074827;28;20021;-72
2023/03/22 07:49:55;;;;;;;6.10;2.60;;;11.40;94.30;;;;;;5073913;28;20043;-71
2023/03/22 07:52:20;;;;;;;7.72;3.50;;;11.40;94.50;;;;;;5073983;28;20033;-71
2023/03/22 07:54:46;;;;;;;5.32;2.63;;;11.40;94.20;;;;;;5057046;28;20033;-71
2023/03/22 07:57:12;;;;;;;2.80;1.50;;;11.50;94.30;;;;;;5074567;28;20037;-72
2023/03/22 07:59:38;;;;;;;7.13;2.72;;;11.50;93.90;;;;;;5073635;28;20029;-71
2023/03/22 08:02:03;;;;;;;5.90;2.17;;;11.50;94.00;;;;;;5074708;28;20029;-71
2023/03/22 08:04:29;;;;;;;5.20;2.00;;;11.60;94.20;;;;;;5073510;28;20055;-71
2023/03/22 08:06:57;;;;;;;6.05;2.10;;;11.50;93.70;;;;;;5073537;28;20021;-72
2023/03/22 08:09:24;;;;;;;8.63;3.40;;;11.50;93.80;;;;;;5074431;28;20028;-71
2023/03/22 08:11:50;;;;;;;7.35;2.42;;;11.60;94.20;;;;;;5074418;28;20031;-71
2023/03/22 08:14:16;;;;;;;8.00;2.95;;;11.60;94.40;;;;;;5056697;28;20021;-71
2023/03/22 08:16:43;;;;;;;5.60;2.58;;;11.60;94.20;;;;;;5074321;28;20050;-71
2023/03/22 08:19:09;;;;;;;7.97;2.70;;;11.60;93.60;;;;;;5074211;28;20039;-71
2023/03/22 08:21:35;;;;;;;5.00;2.22;;;11.60;93.40;;;;;;5073262;28;20021;-71
2023/03/22 08:24:00;;;;;;;6.88;2.25;;;11.60;93.40;;;;;;5073124;28;20021;-71
2023/03/22 08:26:26;;;;;;;5.47;2.25;;;11.70;93.50;;;;;;5074057;28;20021;-71
2023/03/22 08:28:52;;;;;;;5.93;2.25;;;11.70;93.20;;;;;;5072760;28;20072;-72
2023/03/22 08:31:18;;;;;;;5.72;2.55;;;11.70;92.90;;;;;;5073062;28;20048;-71
2023/03/22 08:33:45;;;;;;;6.72;2.63;;;11.80;92.90;;;;;;5074027;28;20029;-71
2023/03/22 08:36:15;;;;;;;4.03;1.73;;;11.80;92.70;;;;;;5072894;28;20392;-71
2023/03/22 08:38:41;;;;;;;4.03;1.98;;;11.80;92.40;;;;;;5073845;28;20036;-71
2023/03/22 08:41:07;;;;;;;5.05;1.58;;;11.90;92.40;;;;;;5073937;28;20100;-71
2023/03/22 08:43:33;;;;;;;9.77;2.05;;;11.90;92.40;;;;;;5072800;28;20096;-72
2023/03/22 08:45:58;;;;;;;6.72;2.05;;;11.90;91.90;;;;;;5073868;28;20043;-72
2023/03/22 08:48:26;;;;;;;4.90;1.25;;;12.00;91.60;;;;;;5072718;28;20079;-71
2023/03/22 08:50:52;;;;;;;3.75;1.20;;;12.00;91.40;;;;;;5072614;28;20029;-71
2023/03/22 08:53:17;;;;;;;6.35;2.00;;;12.10;91.60;;;;;;5073753;28;20036;-71
2023/03/22 08:55:43;;;;;;;7.72;2.17;;;12.10;91.70;;;;;;5073570;28;20032;-71
2023/03/22 08:58:13;;;;;;;8.32;2.40;;;12.10;91.90;;;;;;5072649;28;20025;-71
2023/03/22 09:00:40;;;;;;;8.25;2.40;;;12.20;92.00;;;;;;5073615;28;20021;-72
2023/03/22 09:03:05;;;;;;;4.82;2.10;;;12.30;91.70;;;;;;5073602;28;20032;-71
2023/03/22 09:05:31;;;;;;;3.95;2.28;;;12.30;91.80;;;;;;5072482;28;20018;-72
2023/03/22 09:07:57;;;;;;;3.80;1.55;;;12.40;91.30;;;;;;5073368;28;20053;-71
2023/03/22 09:10:22;;;;;;;8.73;1.95;;;12.40;91.20;;;;;;5073476;28;20029;-72
2023/03/22 09:12:48;;;;;;;4.55;1.67;;;12.40;91.20;;;;;;5073331;28;20037;-71
2023/03/22 09:15:14;;;;;;;7.82;2.50;;;12.50;91.10;;;;;;5072337;28;20037;-73
2023/03/22 09:17:40;;;;;;;6.38;1.80;;;12.50;90.70;;;;;;5072311;28;20037;-71
2023/03/22 09:20:06;;;;;;;7.43;2.20;;;12.60;90.50;;;;;;5073279;28;20043;-72
2023/03/22 09:22:32;;;;;;;5.57;1.67;;;12.60;90.70;;;;;;5073230;28;20029;-72
2023/03/22 09:24:58;;;;;;;4.38;1.63;;;12.70;89.80;;;;;;5072727;28;20025;-72
2023/03/22 09:27:23;;;;;;;3.67;1.67;;;12.60;89.60;;;;;;5073067;28;20041;-71
2023/03/22 09:29:51;;;;;;;5.03;1.35;;;12.60;90.10;;;;;;5073038;28;20135;-71
2023/03/22 09:32:17;;;;;;;5.85;1.95;;;12.60;89.30;;;;;;5073119;28;20036;-71
2023/03/22 09:34:42;;;;;;;5.07;1.67;;;12.60;88.40;;;;;;5072149;28;20029;-71
2023/03/22 09:37:08;;;;;;;7.95;1.83;;;12.60;89.00;;;;;;5072963;28;20032;-71
2023/03/22 09:39:37;;;;;;;5.85;1.60;;;12.70;90.00;;;;;;5073059;28;20057;-72
2023/03/22 09:42:06;;;;;;;6.63;2.25;;;12.70;88.20;;;;;;5073041;28;20014;-72
2023/03/22 09:44:43;;;;;;;6.57;2.00;;;12.80;88.30;;;;;;5072944;28;20485;-71
2023/03/22 09:47:18;;;;;;;6.07;1.48;;;12.90;87.90;;;;;;5073186;28;20017;-71
2023/03/22 09:49:49;;;;;;;11.23;2.03;;;12.80;87.00;;;;;;5072983;28;20381;-71
2023/03/22 09:52:16;;;;;;;4.65;1.35;;;12.80;87.30;;;;;;5072982;28;20025;-71
2023/03/22 09:54:44;;;;;;;4.68;1.58;;;12.80;87.00;;;;;;5072936;28;20049;-71
2023/03/22 09:57:32;;;;;;;6.13;1.48;;;12.80;87.10;;;;;;5072848;28;20029;-70
2023/03/22 10:00:23;;;;;;;2.70;1.52;;;12.80;87.30;;;;;;5072959;28;20025;-71
2023/03/22 10:03:28;;;;;;;3.60;1.55;;;12.80;86.30;;;;;;5072973;28;20047;-71
2023/03/22 10:06:07;;;;;;;5.88;1.55;;;12.80;88.10;;;;;;5073023;28;20492;-71
2023/03/22 10:09:16;;;;;;;3.72;1.38;;;12.80;86.50;;;;;;5071854;28;20059;-71
2023/03/22 10:12:07;;;;;;;5.88;1.85;;;12.80;86.50;;;;;;4992058;28;20027;-73
2023/03/22 10:14:40;;;;;;;2.72;1.40;;;12.80;87.10;;;;;;4992149;28;20090;-71
2023/03/22 10:17:10;;;;;;;6.55;2.40;;;12.80;85.70;;;;;;5047637;28;20037;-71
2023/03/22 10:19:36;;;;;;;3.75;1.25;;;12.80;86.50;;;;;;5072739;28;20021;-71
2023/03/22 10:22:04;;;;;;;6.15;1.80;;;12.80;87.50;;;;;;5072629;28;20075;-71
2023/03/22 10:24:37;;;;;;;4.10;1.65;;;12.80;87.00;;;;;;5072687;28;20047;-71
2023/03/22 10:27:12;;;;;;;3.85;1.20;;;12.80;86.60;;;;;;5072852;28;20021;-71
2023/03/22 10:29:42;;;;;;;5.97;1.50;;;12.80;86.80;;;;;;5072456;28;20037;-71
2023/03/22 10:32:16;;;;;;;4.35;1.02;;;12.80;86.30;;;;;;5072553;28;20021;-71
2023/03/22 10:34:43;;;;;;;4.15;1.70;;;12.70;85.40;;;;;;5072496;28;20128;-71
2023/03/22 10:37:16;;;;;;;7.20;1.60;;;12.70;86.30;;;;;;5072492;28;20017;-71
2023/03/22 10:39:48;;;;;;;6.00;1.23;;;12.70;86.00;;;;;;5076147;28;20025;-71
2023/03/22 10:42:22;;;;;;;6.20;1.17;;;12.70;86.00;;;;;;5076240;28;20009;-70
2023/03/22 10:45:11;;;;;;;5.90;1.70;;;12.70;88.00;;;;;;5076306;28;20028;-72
2023/03/22 10:48:06;;;;;;;5.65;1.08;;;12.80;88.40;;;;;;5076060;28;20043;-72
2023/03/22 10:50:37;;;;;;;3.47;1.17;;;12.70;87.80;;;;;;5065704;28;20104;-71
2023/03/22 10:53:31;;;;;;;5.15;1.55;;;12.60;89.30;;;;;;5075897;28;20017;-72
2023/03/22 10:55:57;;;;;;;3.65;1.30;;;12.60;89.60;;;;;;5075862;28;20044;-71
2023/03/22 10:58:30;;;;;;;5.43;1.40;;;12.60;90.20;;;;;;5075793;28;20033;-71
2023/03/22 11:01:02;;;;;;;3.05;1.27;;;12.50;90.50;;;;;;5075885;28;20028;-73
2023/03/22 11:03:36;;;;;;;3.83;1.30;;;12.40;91.10;;;;;;5075953;28;20028;-72
2023/03/22 11:06:28;;;;;;;2.80;1.23;;;12.40;91.20;;;;;;5075814;28;20028;-72
2023/03/22 11:09:00;;;;;;;5.97;1.48;;;12.40;91.50;;;;;;5075758;28;20014;-72
2023/03/22 11:11:46;;;;;;;4.35;1.40;;;12.40;91.40;;;;;;5075680;28;20028;-72
2023/03/22 11:14:20;;;;;;;6.22;1.77;;;12.40;91.60;;;;;;5075608;28;20060;-72
2023/03/22 11:17:06;;;;;;;3.42;1.13;;;12.40;92.20;;;;;;5075513;28;20035;-72
2023/03/22 11:19:34;;;;;;;9.30;1.63;;;12.40;91.90;;;;;;5061939;28;20056;-72
2023/03/22 11:22:01;;;;;;;5.07;1.58;;;12.40;92.20;;;;;;5075411;28;20055;-72
2023/03/22 11:24:30;;;;;;;3.40;1.27;;;12.50;92.40;;;;;;5075400;28;20108;-71
2023/03/22 11:27:17;;;;;;;10.57;1.95;;;12.50;92.20;;;;;;5075225;28;20088;-72
2023/03/22 11:29:46;;;;;;;6.80;1.67;;;12.40;93.10;;;;;;5075098;28;20057;-71
2023/03/22 11:32:36;;;;;;;4.88;1.83;;;12.40;92.90;;;;;;5075174;28;20029;-72
2023/03/22 11:35:15;;;;;;;7.35;2.13;;;12.30;93.20;;;;;;5075165;28;20029;-71
2023/03/22 11:37:47;;;;;;;6.47;1.63;;;12.30;93.00;;;;;;5075095;28;20025;-72
2023/03/22 11:40:25;;;;;;;8.88;1.88;;;12.30;93.00;;;;;;5075052;28;20039;-71
2023/03/22 11:43:09;;;;;;;6.47;2.70;;;12.20;92.70;;;;;;5075062;28;20172;-71
2023/03/22 11:45:37;;;;;;;5.25;1.90;;;12.20;93.50;;;;;;5074912;28;20025;-71
2023/03/22 11:48:25;;;;;;;5.72;2.25;;;12.20;93.00;;;;;;5074554;28;20021;-71
2023/03/22 11:50:53;;;;;;;4.22;1.50;;;12.10;93.50;;;;;;5074862;28;20032;-71
2023/03/22 11:53:26;;;;;;;5.88;1.67;;;12.10;93.40;;;;;;5073788;28;20099;-71
2023/03/22 11:55:55;;;;;;;1.85;1.08;;;12.10;93.40;;;;;;5074820;28;20029;-71
2023/03/22 11:58:42;;;;;;;3.97;1.40;;;12.20;93.80;;;;;;5074660;28;20108;-71
2023/03/22 12:01:18;;;;;;;5.22;1.50;;;12.20;93.20;;;;;;5074716;28;20025;-72
2023/03/22 12:03:50;;;;;;;3.75;1.80;;;12.20;93.30;;;;;;5073684;28;20017;-71
2023/03/22 12:06:23;;;;;;;5.20;1.70;;;12.30;93.40;;;;;;5074609;28;20022;-71
2023/03/22 12:08:59;;;;;;;6.55;1.98;;;12.30;93.60;;;;;;5074676;28;20259;-71
2023/03/22 12:11:57;;;;;;;3.25;1.52;;;12.30;93.50;;;;;;5074522;28;20021;-71
2023/03/22 12:14:45;;;;;;;2.33;1.35;;;12.30;93.20;;;;;;5069503;28;20100;-71
2023/03/22 12:17:43;;;;;;;2.33;1.52;;;12.20;93.60;;;;;;5074243;28;20052;-71
2023/03/22 12:20:32;;;;;;;3.63;1.70;;;12.20;93.30;;;;;;5058786;28;20061;-71
2023/03/22 12:22:58;;;;;;;7.72;1.63;;;12.30;93.90;;;;;;5073234;28;20025;-72
2023/03/22 12:25:31;;;;;;;1.67;0.80;;;12.20;93.30;;;;;;5074152;28;20070;-71
2023/03/22 12:28:03;;;;;;;4.55;1.40;;;12.30;93.20;;;;;;5074066;28;20028;-71
2023/03/22 12:30:59;;;;;;;3.72;1.17;;;12.20;93.20;;;;;;5072565;28;20053;-71
2023/03/22 12:33:26;;;;;;;4.07;1.40;;;12.30;93.30;;;;;;5057223;28;20071;-71
2023/03/22 12:36:00;;;;;;;4.32;1.13;;;12.30;92.70;;;;;;5074112;28;20033;-71
2023/03/22 12:38:45;;;;;;;4.25;1.60;;;12.40;92.60;;;;;;5073892;28;20049;-71
2023/03/22 12:41:34;;;;;;;1.83;0.90;;;12.40;92.90;;;;;;5073964;28;20051;-71
2023/03/22 12:44:11;;;;;;;5.90;1.13;;;12.40;92.70;;;;;;5073444;28;20041;-71
2023/03/22 12:46:50;;;;;;;3.10;1.17;;;12.40;92.70;;;;;;5072812;28;20029;-71
2023/03/22 12:49:15;;;;;;;4.22;1.52;;;12.40;92.80;;;;;;5073792;28;20047;-72
2023/03/22 12:51:42;;;;;;;3.30;1.10;;;12.40;92.80;;;;;;5072641;28;20029;-71
2023/03/22 12:54:12;;;;;;;3.08;1.00;;;12.40;92.30;;;;;;5073690;28;20482;-70
2023/03/22 12:56:42;;;;;;;3.17;1.10;;;12.40;92.30;;;;;;5073619;28;20025;-71
2023/03/22 12:59:20;;;;;;;1.65;1.00;;;12.40;92.20;;;;;;5073229;28;20036;-71
2023/03/22 13:02:07;;;;;;;3.78;1.20;;;12.40;92.50;;;;;;5073568;28;20024;-71
2023/03/22 13:04:35;;;;;;;2.75;1.40;;;12.40;92.40;;;;;;5073540;28;20071;-71